Time;durP1;ratioP1;P1;durP2;ratioP2;P2;SDS_P1;SDS_P2;PMS_P1;PMS_P2;Temp;Humidity;BMP_temperature;BMP_pressure;BME280_temperature;BME280_humidity;BME280_pressure;Samples;Min_cycle;Max_cycle;Signal;HPM_P1;HPM_P2
2022/05/07 00:00:47;;;;;;;11.25;10.00;;;13.50;99.90;;;;;;2496277;23;20715;-75
2022/05/07 00:01:47;;;;;;;12.98;10.57;;;13.50;99.90;;;;;;2485150;23;20008;-75
2022/05/07 00:02:49;;;;;;;14.52;10.38;;;13.50;99.90;;;;;;2485591;23;20035;-75
2022/05/07 00:03:49;;;;;;;11.57;10.35;;;13.50;99.90;;;;;;2485614;23;20613;-75
2022/05/07 00:04:50;;;;;;;12.75;10.88;;;13.50;99.90;;;;;;2485097;23;20008;-75
2022/05/07 00:05:50;;;;;;;12.30;11.00;;;13.50;99.90;;;;;;2484963;23;20015;-75
2022/05/07 00:06:51;;;;;;;15.95;10.45;;;13.60;99.90;;;;;;2485520;23;20018;-75
2022/05/07 00:07:53;;;;;;;12.77;10.32;;;13.60;99.90;;;;;;2486533;23;20038;-74
2022/05/07 00:08:54;;;;;;;13.50;10.65;;;13.60;99.90;;;;;;2487410;23;20064;-75
2022/05/07 00:09:54;;;;;;;13.50;10.65;;;13.50;99.90;;;;;;2486134;23;20507;-75
2022/05/07 00:10:55;;;;;;;12.32;10.35;;;13.60;99.90;;;;;;2486105;23;20008;-74
2022/05/07 00:11:56;;;;;;;12.63;10.35;;;13.50;99.90;;;;;;2485821;23;20015;-74
2022/05/07 00:12:56;;;;;;;11.48;10.15;;;13.50;99.90;;;;;;2485611;23;20014;-75
2022/05/07 00:13:57;;;;;;;11.90;9.95;;;13.50;99.90;;;;;;2484785;23;20016;-73
2022/05/07 00:14:58;;;;;;;11.98;10.23;;;13.50;99.90;;;;;;2484620;23;20010;-74
2022/05/07 00:18:37;;;;;;;13.75;10.35;;;13.50;99.90;;;;;;2484501;23;20011;-73
2022/05/07 00:19:37;;;;;;;11.52;9.77;;;13.40;99.90;;;;;;2484506;23;20004;-73
2022/05/07 00:20:38;;;;;;;11.15;9.77;;;13.40;99.90;;;;;;2483909;23;20011;-72
2022/05/07 00:21:39;;;;;;;12.23;10.15;;;13.40;99.90;;;;;;2484021;23;20457;-73
2022/05/07 00:22:40;;;;;;;13.85;10.00;;;13.40;99.90;;;;;;2484258;23;20630;-74
2022/05/07 00:23:40;;;;;;;11.50;9.85;;;13.40;99.90;;;;;;2483824;23;20063;-73
2022/05/07 00:24:41;;;;;;;13.75;10.05;;;13.40;99.90;;;;;;2484187;23;20083;-73
2022/05/07 00:25:41;;;;;;;11.00;9.90;;;13.40;99.90;;;;;;2484072;23;20042;-73
2022/05/07 00:26:42;;;;;;;11.00;9.70;;;13.40;99.90;;;;;;2483986;23;20030;-74
2022/05/07 00:27:42;;;;;;;11.88;10.07;;;13.30;99.90;;;;;;2482439;23;20083;-73
2022/05/07 00:28:44;;;;;;;12.05;10.23;;;13.30;99.90;;;;;;2483832;23;20012;-73
2022/05/07 00:29:45;;;;;;;11.48;10.27;;;13.40;99.90;;;;;;2484223;23;20042;-74
2022/05/07 00:30:45;;;;;;;11.90;9.98;;;13.30;99.90;;;;;;2483755;23;20010;-74
2022/05/07 00:31:46;;;;;;;11.48;10.27;;;13.30;99.90;;;;;;2495615;23;20019;-75
2022/05/07 00:32:47;;;;;;;12.02;10.60;;;13.30;99.90;;;;;;2495489;23;20050;-73
2022/05/07 00:33:48;;;;;;;12.30;10.75;;;13.30;99.90;;;;;;2484844;23;20341;-73
2022/05/07 00:34:48;;;;;;;12.60;10.63;;;13.20;99.90;;;;;;2497437;23;20023;-74
2022/05/07 00:35:49;;;;;;;11.85;10.40;;;13.20;99.90;;;;;;2501298;23;20012;-75
2022/05/07 00:36:50;;;;;;;13.23;10.15;;;13.20;99.90;;;;;;2489470;23;20012;-74
2022/05/07 00:37:50;;;;;;;13.23;10.90;;;13.20;99.90;;;;;;2489593;23;20039;-74
2022/05/07 00:38:52;;;;;;;12.02;10.73;;;13.20;99.90;;;;;;2485131;23;20008;-73
2022/05/07 00:39:53;;;;;;;12.98;10.52;;;13.20;99.90;;;;;;2483553;23;20011;-74
2022/05/07 00:40:55;;;;;;;13.77;11.27;;;13.10;99.90;;;;;;2483464;23;20019;-73
2022/05/07 00:41:55;;;;;;;14.50;11.48;;;13.20;99.90;;;;;;2484309;23;20015;-74
2022/05/07 00:42:56;;;;;;;13.50;11.30;;;13.20;99.90;;;;;;2484127;23;20032;-73
2022/05/07 00:43:56;;;;;;;12.40;11.10;;;13.10;99.90;;;;;;2494916;23;20043;-73
2022/05/07 00:44:57;;;;;;;13.52;11.63;;;13.10;99.90;;;;;;2495123;23;20027;-73
2022/05/07 00:45:58;;;;;;;12.93;11.63;;;13.10;99.90;;;;;;2484114;23;20063;-73
2022/05/07 00:47:11;;;;;;;14.35;12.20;;;13.10;99.90;;;;;;2494588;23;20448;-73
2022/05/07 00:48:14;;;;;;;15.52;12.77;;;13.10;99.90;;;;;;2493185;23;20015;-74
2022/05/07 00:49:15;;;;;;;13.45;10.95;;;13.10;99.90;;;;;;2495356;23;20019;-74
2022/05/07 00:51:35;;;;;;;15.68;11.57;;;13.10;99.90;;;;;;2491816;23;20026;-73
2022/05/07 00:52:36;;;;;;;13.88;11.95;;;13.00;99.90;;;;;;2495086;23;20007;-74
2022/05/07 00:53:38;;;;;;;13.90;11.45;;;13.00;99.90;;;;;;2495352;23;20000;-75
2022/05/07 00:54:40;;;;;;;12.80;11.32;;;13.00;99.90;;;;;;2494258;23;20013;-74
2022/05/07 00:55:43;;;;;;;14.95;11.77;;;13.00;99.90;;;;;;2495069;23;20011;-73
2022/05/07 00:56:44;;;;;;;13.65;11.50;;;13.00;99.90;;;;;;2483351;23;20544;-73
2022/05/07 00:57:45;;;;;;;13.52;11.60;;;13.00;99.90;;;;;;2471055;24;20168;-74
2022/05/07 00:58:47;;;;;;;12.52;10.90;;;13.00;99.90;;;;;;2483204;23;20381;-74
2022/05/07 00:59:49;;;;;;;12.13;10.70;;;13.00;99.90;;;;;;2483000;23;20027;-75
2022/05/07 01:00:53;;;;;;;12.70;10.85;;;13.00;99.90;;;;;;2471462;23;20012;-74
2022/05/07 01:01:54;;;;;;;15.00;11.10;;;12.90;99.90;;;;;;2471958;23;20456;-74
2022/05/07 01:02:57;;;;;;;14.05;11.40;;;12.90;99.90;;;;;;2483446;23;20008;-74
2022/05/07 01:03:58;;;;;;;12.32;11.07;;;12.90;99.90;;;;;;2483199;23;20012;-75
2022/05/07 01:05:05;;;;;;;15.38;11.73;;;12.80;99.90;;;;;;2472501;23;20015;-75
2022/05/07 01:06:06;;;;;;;14.02;11.23;;;12.80;99.90;;;;;;2483121;23;20008;-74
2022/05/07 01:07:07;;;;;;;12.32;11.02;;;12.80;99.90;;;;;;2494112;23;20050;-75
2022/05/07 01:08:11;;;;;;;14.27;11.43;;;12.80;99.90;;;;;;2483311;23;20387;-74
2022/05/07 01:09:13;;;;;;;13.50;11.15;;;12.70;99.90;;;;;;2483902;23;20016;-74
2022/05/07 01:10:13;;;;;;;13.07;10.88;;;12.70;99.90;;;;;;2494760;23;20034;-74
2022/05/07 01:11:16;;;;;;;12.13;10.93;;;12.70;99.90;;;;;;2494955;23;20007;-73
2022/05/07 01:12:17;;;;;;;12.85;11.00;;;12.70;99.90;;;;;;2495010;23;20051;-74
2022/05/07 01:13:19;;;;;;;13.98;11.73;;;12.60;99.90;;;;;;2495097;23;20085;-74
2022/05/07 01:14:20;;;;;;;13.13;10.93;;;12.60;99.90;;;;;;2494878;23;20047;-74
2022/05/07 01:15:20;;;;;;;12.32;11.02;;;12.50;99.90;;;;;;2494680;23;20392;-73
2022/05/07 01:16:23;;;;;;;12.10;10.82;;;12.50;99.90;;;;;;2494609;23;20165;-74
2022/05/07 01:17:23;;;;;;;11.35;10.05;;;12.50;99.90;;;;;;2494075;23;20050;-73
2022/05/07 01:18:24;;;;;;;11.43;10.23;;;12.40;99.90;;;;;;2494714;23;20380;-73
2022/05/07 01:19:25;;;;;;;12.38;10.60;;;12.40;99.90;;;;;;2494741;23;20520;-73
2022/05/07 01:20:26;;;;;;;11.43;10.23;;;12.40;99.90;;;;;;2494356;23;20354;-74
2022/05/07 01:21:28;;;;;;;11.15;10.00;;;12.40;99.90;;;;;;2494708;23;20012;-73
2022/05/07 01:22:31;;;;;;;13.05;10.32;;;12.30;99.90;;;;;;2494668;23;20015;-73
2022/05/07 01:23:32;;;;;;;11.48;10.20;;;12.30;99.90;;;;;;2494789;23;20015;-73
2022/05/07 01:24:33;;;;;;;11.20;10.00;;;12.30;99.90;;;;;;2494686;23;20051;-73
2022/05/07 01:25:33;;;;;;;11.10;9.90;;;12.20;99.90;;;;;;2484016;23;20008;-75
2022/05/07 01:26:34;;;;;;;13.18;10.10;;;12.20;99.90;;;;;;2494775;23;20082;-75
2022/05/07 01:27:36;;;;;;;11.90;10.10;;;12.20;99.90;;;;;;2482429;23;20098;-75
2022/05/07 01:28:37;;;;;;;11.27;9.90;;;12.20;99.90;;;;;;2483127;23;20011;-73
2022/05/07 01:29:40;;;;;;;10.90;9.70;;;12.20;99.90;;;;;;2482989;23;20549;-74
2022/05/07 01:30:42;;;;;;;12.50;10.63;;;12.20;99.90;;;;;;2471123;23;20015;-74
2022/05/07 01:31:42;;;;;;;10.90;9.68;;;12.20;99.90;;;;;;2482753;23;20162;-73
2022/05/07 01:32:43;;;;;;;11.57;9.93;;;12.20;99.90;;;;;;2482695;23;20598;-74
2022/05/07 01:33:44;;;;;;;13.95;9.90;;;12.10;99.90;;;;;;2483042;23;20019;-74
2022/05/07 01:34:50;;;;;;;12.10;10.65;;;12.10;99.90;;;;;;2494542;23;20349;-74
2022/05/07 01:35:51;;;;;;;11.85;10.20;;;12.10;99.90;;;;;;2494323;23;20023;-74
2022/05/07 01:36:51;;;;;;;12.77;10.52;;;12.10;99.90;;;;;;2494294;23;20046;-74
2022/05/07 01:37:53;;;;;;;11.88;10.25;;;12.10;99.90;;;;;;2494559;23;20027;-73
2022/05/07 01:38:54;;;;;;;11.48;10.27;;;12.10;99.90;;;;;;2482967;23;20401;-74
2022/05/07 01:39:55;;;;;;;11.63;10.43;;;12.10;99.90;;;;;;2471284;23;20079;-73
2022/05/07 01:40:56;;;;;;;11.57;10.25;;;12.10;99.90;;;;;;2483069;23;20031;-74
2022/05/07 01:41:57;;;;;;;11.05;9.93;;;12.10;99.90;;;;;;2494683;23;20067;-74
2022/05/07 01:42:58;;;;;;;11.05;9.93;;;12.00;99.90;;;;;;2494935;23;20066;-73
2022/05/07 01:43:59;;;;;;;12.05;10.18;;;12.00;99.90;;;;;;2494794;23;20432;-74
2022/05/07 01:45:01;;;;;;;11.68;10.43;;;12.00;99.90;;;;;;2494922;23;20003;-75
2022/05/07 01:46:02;;;;;;;11.32;9.73;;;12.00;99.90;;;;;;2494612;23;20013;-74
2022/05/07 01:48:23;;;;;;;13.13;10.73;;;11.90;99.90;;;;;;2491592;23;20007;-73
2022/05/07 01:49:28;;;;;;;11.68;10.30;;;11.90;99.90;;;;;;2494541;23;20074;-73
2022/05/07 01:50:30;;;;;;;11.80;9.98;;;11.90;99.90;;;;;;2494413;23;20023;-73
2022/05/07 01:51:30;;;;;;;13.10;10.13;;;11.90;99.90;;;;;;2482996;23;20011;-73
2022/05/07 01:52:32;;;;;;;12.68;10.80;;;11.80;99.90;;;;;;2471459;23;20020;-74
2022/05/07 01:53:33;;;;;;;11.25;10.02;;;11.80;99.90;;;;;;2471329;23;20545;-74
2022/05/07 01:54:33;;;;;;;12.23;10.57;;;11.80;99.90;;;;;;2483097;23;20008;-74
2022/05/07 01:55:35;;;;;;;12.10;10.27;;;11.80;99.90;;;;;;2494871;23;20053;-74
2022/05/07 01:56:36;;;;;;;11.85;10.23;;;11.70;99.90;;;;;;2483556;23;20004;-75
2022/05/07 01:57:37;;;;;;;13.60;11.35;;;11.70;99.90;;;;;;2482301;23;20483;-74
2022/05/07 01:58:38;;;;;;;12.50;10.90;;;11.70;99.90;;;;;;2471516;23;20024;-74
2022/05/07 01:59:42;;;;;;;12.98;11.38;;;11.70;99.90;;;;;;2482847;23;20048;-74
2022/05/07 02:00:48;;;;;;;16.75;12.40;;;11.60;99.90;;;;;;2494669;23;20011;-74
2022/05/07 02:01:48;;;;;;;15.52;11.77;;;11.60;99.90;;;;;;2483013;23;20346;-74
2022/05/07 02:02:49;;;;;;;15.20;12.30;;;11.60;99.90;;;;;;2483125;23;20311;-74
2022/05/07 02:03:54;;;;;;;14.13;11.82;;;11.50;99.90;;;;;;2494636;23;20011;-74
2022/05/07 02:04:59;;;;;;;14.55;12.45;;;11.50;99.90;;;;;;2494535;23;20015;-74
2022/05/07 02:06:00;;;;;;;15.45;11.88;;;11.50;99.90;;;;;;2494335;23;20015;-74
2022/05/07 02:07:00;;;;;;;15.05;12.38;;;11.50;99.90;;;;;;2494095;23;20042;-74
2022/05/07 02:08:02;;;;;;;13.43;11.23;;;11.50;99.90;;;;;;2494537;23;20022;-74
2022/05/07 02:09:03;;;;;;;14.70;11.57;;;11.50;99.90;;;;;;2494693;23;20019;-74
2022/05/07 02:10:07;;;;;;;13.50;11.38;;;11.40;99.90;;;;;;2493876;23;20018;-74
2022/05/07 02:11:08;;;;;;;12.43;11.02;;;11.40;99.90;;;;;;2483757;23;20004;-74
2022/05/07 02:12:10;;;;;;;13.20;11.05;;;11.40;99.90;;;;;;2483519;23;20067;-74
2022/05/07 02:13:15;;;;;;;12.05;10.65;;;11.40;99.90;;;;;;2494753;23;20015;-74
2022/05/07 02:14:17;;;;;;;11.98;10.70;;;11.40;99.90;;;;;;2494786;23;20072;-74
2022/05/07 02:15:18;;;;;;;12.63;11.20;;;11.40;99.90;;;;;;2482943;23;20501;-74
2022/05/07 02:16:23;;;;;;;12.77;10.82;;;11.40;99.90;;;;;;2483576;23;20541;-74
2022/05/07 02:17:24;;;;;;;13.40;11.02;;;11.30;99.90;;;;;;2493880;23;20011;-75
2022/05/07 02:18:24;;;;;;;13.38;10.75;;;11.30;99.90;;;;;;2494811;23;20041;-74
2022/05/07 02:19:25;;;;;;;12.82;10.80;;;11.30;99.90;;;;;;2494658;23;20092;-74
2022/05/07 02:20:29;;;;;;;11.68;10.40;;;11.30;99.90;;;;;;2494343;23;20170;-74
2022/05/07 02:21:33;;;;;;;14.55;11.23;;;11.30;99.90;;;;;;2494307;23;20067;-74
2022/05/07 02:22:35;;;;;;;12.27;10.40;;;11.20;99.90;;;;;;2482817;23;20008;-75
2022/05/07 02:23:35;;;;;;;13.60;11.10;;;11.20;99.90;;;;;;2471226;23;20607;-75
2022/05/07 02:24:36;;;;;;;13.98;11.40;;;11.20;99.90;;;;;;2482858;23;20007;-75
2022/05/07 02:25:40;;;;;;;12.77;10.55;;;11.20;99.90;;;;;;2482743;23;20015;-75
2022/05/07 02:26:42;;;;;;;12.68;10.90;;;11.10;99.90;;;;;;2482581;23;20350;-73
2022/05/07 02:27:43;;;;;;;12.55;10.88;;;11.20;99.90;;;;;;2493662;23;20011;-75
2022/05/07 02:28:44;;;;;;;11.52;10.32;;;11.10;99.90;;;;;;2482661;23;20469;-74
2022/05/07 02:29:45;;;;;;;14.02;10.35;;;11.10;99.90;;;;;;2482648;23;20011;-74
2022/05/07 02:30:46;;;;;;;12.20;10.38;;;11.10;99.90;;;;;;2482487;23;20004;-74
2022/05/07 02:32:06;;;;;;;12.95;10.68;;;11.10;99.90;;;;;;2482870;23;20019;-74
2022/05/07 02:33:10;;;;;;;13.88;10.70;;;11.10;99.90;;;;;;2494620;23;20018;-74
2022/05/07 02:34:12;;;;;;;11.80;10.50;;;11.00;99.90;;;;;;2494629;23;20322;-74
2022/05/07 02:35:13;;;;;;;10.95;9.70;;;11.00;99.90;;;;;;2494758;23;20075;-74
2022/05/07 02:36:16;;;;;;;12.45;10.23;;;11.00;99.90;;;;;;2494240;23;20082;-75
2022/05/07 02:37:18;;;;;;;12.65;10.20;;;11.00;99.90;;;;;;2482233;23;20015;-74
2022/05/07 02:38:23;;;;;;;10.85;9.63;;;11.00;99.90;;;;;;2497719;23;20019;-74
2022/05/07 02:39:25;;;;;;;11.75;9.95;;;11.00;99.90;;;;;;2506118;23;20518;-74
2022/05/07 02:40:25;;;;;;;11.82;9.55;;;11.00;99.90;;;;;;2494087;23;20093;-74
2022/05/07 02:42:48;;;;;;;11.00;9.90;;;10.90;99.90;;;;;;2491304;23;20035;-74
2022/05/07 02:43:53;;;;;;;14.25;10.65;;;10.90;99.90;;;;;;2494780;23;20003;-74
2022/05/07 02:44:54;;;;;;;12.18;10.23;;;10.90;99.90;;;;;;2494714;23;20023;-74
2022/05/07 02:45:54;;;;;;;12.45;10.45;;;10.90;99.90;;;;;;2494558;23;20026;-74
2022/05/07 02:46:56;;;;;;;12.80;10.35;;;10.90;99.90;;;;;;2493884;23;20015;-74
2022/05/07 02:47:56;;;;;;;14.82;10.13;;;10.80;99.90;;;;;;2494445;23;20051;-74
2022/05/07 02:48:57;;;;;;;12.65;10.20;;;10.90;99.90;;;;;;2494501;23;20007;-74
2022/05/07 02:49:59;;;;;;;10.90;9.80;;;10.90;99.90;;;;;;2494281;23;20019;-74
2022/05/07 02:51:00;;;;;;;12.95;10.43;;;10.80;99.90;;;;;;2506375;23;20086;-74
2022/05/07 02:52:01;;;;;;;12.90;10.40;;;10.80;99.90;;;;;;2506392;23;20013;-74
2022/05/07 02:53:01;;;;;;;12.93;10.57;;;10.80;99.90;;;;;;2506590;23;20019;-74
2022/05/07 02:54:02;;;;;;;11.60;10.40;;;10.70;99.90;;;;;;2506477;23;20042;-74
2022/05/07 02:55:08;;;;;;;12.60;10.00;;;10.70;99.90;;;;;;2494577;23;20051;-74
2022/05/07 02:56:09;;;;;;;10.93;9.80;;;10.70;99.90;;;;;;2482763;23;20448;-74
2022/05/07 02:57:10;;;;;;;11.13;9.90;;;10.70;99.90;;;;;;2482144;23;20012;-74
2022/05/07 02:58:12;;;;;;;12.27;10.05;;;10.60;99.90;;;;;;2494439;23;20424;-74
2022/05/07 02:59:16;;;;;;;11.52;9.77;;;10.60;99.90;;;;;;2494514;23;20007;-75
2022/05/07 03:00:17;;;;;;;13.02;10.10;;;10.70;99.90;;;;;;2506036;23;20062;-75
2022/05/07 03:01:17;;;;;;;13.05;10.95;;;10.70;99.90;;;;;;2506302;23;20002;-74
2022/05/07 03:02:18;;;;;;;12.15;10.10;;;10.70;99.90;;;;;;2484191;23;20473;-75
2022/05/07 03:03:20;;;;;;;11.10;9.82;;;10.60;99.90;;;;;;2497145;23;20026;-74
2022/05/07 03:04:21;;;;;;;11.35;9.77;;;10.60;99.90;;;;;;2497997;23;20074;-75
2022/05/07 03:05:22;;;;;;;11.95;10.32;;;10.60;99.90;;;;;;2497071;23;20007;-75
2022/05/07 03:06:24;;;;;;;11.20;10.10;;;10.60;99.90;;;;;;2497238;23;20055;-75
2022/05/07 03:07:25;;;;;;;12.50;10.07;;;10.60;99.90;;;;;;2496382;23;20460;-75
2022/05/07 03:08:28;;;;;;;12.00;10.00;;;10.60;99.90;;;;;;2508897;23;20014;-75
2022/05/07 03:09:29;;;;;;;11.77;10.02;;;10.60;99.90;;;;;;2508077;23;20062;-75
2022/05/07 03:10:29;;;;;;;11.43;10.00;;;10.50;99.90;;;;;;2495779;23;20019;-75
2022/05/07 03:11:33;;;;;;;12.57;10.20;;;10.60;99.90;;;;;;2484103;23;20027;-75
2022/05/07 03:12:35;;;;;;;11.77;10.13;;;10.60;99.90;;;;;;2496111;23;20105;-75
2022/05/07 03:13:36;;;;;;;11.55;10.25;;;10.60;99.90;;;;;;2495039;23;20018;-75
2022/05/07 03:14:40;;;;;;;10.93;9.70;;;10.50;99.90;;;;;;2484562;23;20015;-75
2022/05/07 03:15:41;;;;;;;11.73;10.05;;;10.50;99.90;;;;;;2495455;23;20071;-75
2022/05/07 03:16:48;;;;;;;12.75;9.70;;;10.50;99.90;;;;;;2495352;23;20011;-75
2022/05/07 03:17:49;;;;;;;11.05;9.95;;;10.50;99.90;;;;;;2482118;23;20040;-74
2022/05/07 03:18:50;;;;;;;10.98;9.88;;;10.50;99.90;;;;;;2484570;23;20079;-75
2022/05/07 03:19:51;;;;;;;12.00;10.07;;;10.50;99.90;;;;;;2507915;23;20015;-74
2022/05/07 03:20:54;;;;;;;10.70;9.60;;;10.50;99.90;;;;;;2506869;23;20003;-75
2022/05/07 03:21:55;;;;;;;11.73;9.98;;;10.50;99.90;;;;;;2485087;23;20035;-75
2022/05/07 03:22:59;;;;;;;10.90;9.55;;;10.50;99.90;;;;;;2496024;23;20015;-74
2022/05/07 03:24:00;;;;;;;11.55;9.80;;;10.50;99.90;;;;;;2495942;23;20007;-75
2022/05/07 03:25:00;;;;;;;10.63;9.52;;;10.50;99.90;;;;;;2484891;23;20008;-75
2022/05/07 03:26:03;;;;;;;10.98;9.88;;;10.50;99.90;;;;;;2495429;23;20011;-75
2022/05/07 03:27:09;;;;;;;10.65;9.57;;;10.50;99.90;;;;;;2494913;23;20495;-75
2022/05/07 03:28:09;;;;;;;10.95;9.85;;;10.50;99.90;;;;;;2495275;23;20102;-74
2022/05/07 03:29:12;;;;;;;12.25;9.75;;;10.50;99.90;;;;;;2496164;23;20389;-73
2022/05/07 03:30:12;;;;;;;11.23;9.93;;;10.50;99.90;;;;;;2495255;23;20015;-75
2022/05/07 03:31:24;;;;;;;10.45;9.45;;;10.50;99.90;;;;;;2495330;23;20026;-75
2022/05/07 03:32:25;;;;;;;11.60;10.20;;;10.50;99.90;;;;;;2495322;23;20043;-74
2022/05/07 03:33:29;;;;;;;12.95;10.18;;;10.50;99.90;;;;;;2494718;23;20018;-74
2022/05/07 03:34:30;;;;;;;12.48;10.07;;;10.50;99.90;;;;;;2484515;23;20348;-74
2022/05/07 03:35:31;;;;;;;12.98;10.50;;;10.40;99.90;;;;;;2495661;23;20906;-74
2022/05/07 03:36:33;;;;;;;12.55;10.20;;;10.40;99.90;;;;;;2495242;23;20584;-74
2022/05/07 03:37:35;;;;;;;14.38;10.70;;;10.40;99.90;;;;;;2494944;23;20010;-75
2022/05/07 03:38:36;;;;;;;12.43;11.07;;;10.40;99.90;;;;;;2507360;23;20011;-75
2022/05/07 03:39:42;;;;;;;12.52;10.35;;;10.40;99.90;;;;;;2494404;23;20007;-75
2022/05/07 03:40:45;;;;;;;12.63;10.82;;;10.40;99.90;;;;;;2495394;23;20014;-75
2022/05/07 03:41:46;;;;;;;12.63;10.73;;;10.30;99.90;;;;;;2507035;23;20017;-74
2022/05/07 03:42:47;;;;;;;13.00;11.02;;;10.30;99.90;;;;;;2507343;23;20010;-73
2022/05/07 03:43:48;;;;;;;11.68;10.40;;;10.30;99.90;;;;;;2507338;23;20357;-75
2022/05/07 03:44:50;;;;;;;12.98;10.40;;;10.30;99.90;;;;;;2495105;23;20015;-75
2022/05/07 03:45:50;;;;;;;12.65;10.93;;;10.30;99.90;;;;;;2495165;23;20015;-74
2022/05/07 03:46:51;;;;;;;14.35;10.98;;;10.30;99.90;;;;;;2494967;23;20007;-75
2022/05/07 03:47:53;;;;;;;14.60;10.65;;;10.30;99.90;;;;;;2506664;23;20491;-74
2022/05/07 03:48:54;;;;;;;12.20;10.60;;;10.30;99.90;;;;;;2507140;23;20007;-74
2022/05/07 03:49:54;;;;;;;11.68;10.45;;;10.30;99.90;;;;;;2483281;23;20008;-74
2022/05/07 03:50:55;;;;;;;13.93;11.07;;;10.30;99.90;;;;;;2483544;23;20048;-75
2022/05/07 03:53:30;;;;;;;13.18;10.85;;;10.40;99.90;;;;;;2503318;23;20088;-75
2022/05/07 03:54:35;;;;;;;14.18;11.00;;;10.40;99.90;;;;;;2495286;23;20018;-75
2022/05/07 03:55:41;;;;;;;13.45;10.82;;;10.40;99.90;;;;;;2506991;23;20015;-75
2022/05/07 03:56:42;;;;;;;13.43;10.90;;;10.40;99.90;;;;;;2505897;23;20475;-75
2022/05/07 03:57:43;;;;;;;13.77;11.00;;;10.40;99.90;;;;;;2506372;23;20007;-74
2022/05/07 03:58:43;;;;;;;15.02;11.20;;;10.40;99.90;;;;;;2506873;23;20003;-75
2022/05/07 03:59:44;;;;;;;12.63;10.30;;;10.40;99.90;;;;;;2483271;23;20012;-75
2022/05/07 04:00:45;;;;;;;11.55;10.35;;;10.50;99.90;;;;;;2494950;23;20004;-74
2022/05/07 04:01:46;;;;;;;13.95;10.70;;;10.50;99.90;;;;;;2506981;23;20035;-74
2022/05/07 04:02:47;;;;;;;12.50;10.73;;;10.50;99.90;;;;;;2507302;23;20464;-75
2022/05/07 04:04:03;;;;;;;13.18;10.70;;;10.50;99.90;;;;;;2492830;23;20010;-75
2022/05/07 04:05:05;;;;;;;13.60;10.73;;;10.50;99.90;;;;;;2495517;23;20007;-76
2022/05/07 04:06:05;;;;;;;15.40;11.65;;;10.50;99.90;;;;;;2507177;23;20078;-74
2022/05/07 04:07:07;;;;;;;13.38;10.45;;;10.50;99.90;;;;;;2494670;23;20019;-74
2022/05/07 04:08:08;;;;;;;14.18;10.85;;;10.50;99.90;;;;;;2495204;23;20454;-74
2022/05/07 04:09:08;;;;;;;12.02;10.45;;;10.60;99.90;;;;;;2506882;23;20018;-74
2022/05/07 04:10:09;;;;;;;11.20;10.02;;;10.60;99.90;;;;;;2506743;23;20019;-74
2022/05/07 04:11:14;;;;;;;11.65;9.93;;;10.60;99.90;;;;;;2495268;23;20019;-74
2022/05/07 04:12:15;;;;;;;11.38;10.02;;;10.60;99.90;;;;;;2495650;23;20019;-74
2022/05/07 04:13:16;;;;;;;11.55;10.15;;;10.60;99.90;;;;;;2507747;23;20322;-74
2022/05/07 04:14:18;;;;;;;13.10;10.18;;;10.70;99.90;;;;;;2495279;23;20015;-74
2022/05/07 04:15:21;;;;;;;14.43;10.05;;;10.70;99.90;;;;;;2472541;23;20016;-74
2022/05/07 04:16:26;;;;;;;12.85;9.68;;;10.80;99.90;;;;;;2483814;23;20430;-74
2022/05/07 04:17:34;;;;;;;10.20;9.10;;;10.90;99.90;;;;;;2494997;23;20011;-74
2022/05/07 04:18:37;;;;;;;11.48;9.52;;;10.90;99.90;;;;;;2495249;23;20774;-74
2022/05/07 04:19:44;;;;;;;11.75;9.48;;;11.00;99.90;;;;;;2494626;23;20014;-74
2022/05/07 04:20:44;;;;;;;10.50;9.13;;;11.10;99.90;;;;;;2495035;23;20011;-74
2022/05/07 04:21:48;;;;;;;11.02;8.90;;;11.30;99.90;;;;;;2495043;23;20064;-74
2022/05/07 04:22:56;;;;;;;11.85;9.00;;;11.50;99.90;;;;;;2496114;23;20482;-74
2022/05/07 04:23:57;;;;;;;10.18;8.82;;;11.80;99.90;;;;;;2495132;23;20420;-74
2022/05/07 04:24:58;;;;;;;11.50;8.50;;;12.20;99.90;;;;;;2483615;23;20027;-76
2022/05/07 04:25:59;;;;;;;10.32;8.73;;;12.50;99.90;;;;;;2471801;23;20008;-74
2022/05/07 04:27:01;;;;;;;10.25;8.38;;;12.80;99.90;;;;;;2471320;23;20012;-74
2022/05/07 04:28:02;;;;;;;10.50;8.50;;;13.10;99.90;;;;;;2494914;23;20507;-76
2022/05/07 04:29:03;;;;;;;10.75;8.43;;;13.40;99.90;;;;;;2506783;23;20086;-76
2022/05/07 04:30:04;;;;;;;9.20;8.18;;;13.70;99.90;;;;;;2483748;23;20338;-76
2022/05/07 04:31:05;;;;;;;8.20;7.40;;;13.90;99.90;;;;;;2494696;23;20015;-75
2022/05/07 04:32:09;;;;;;;9.77;8.38;;;14.10;99.90;;;;;;2494789;23;20503;-75
2022/05/07 04:33:09;;;;;;;11.15;9.57;;;14.30;99.90;;;;;;2494886;23;20019;-76
2022/05/07 04:34:10;;;;;;;14.27;11.32;;;14.50;99.90;;;;;;2495262;23;20019;-74
2022/05/07 04:35:11;;;;;;;21.90;18.35;;;14.60;99.90;;;;;;2495045;23;20011;-76
2022/05/07 04:36:13;;;;;;;18.50;15.27;;;14.70;99.90;;;;;;2505816;23;20034;-74
2022/05/07 04:37:18;;;;;;;14.50;11.13;;;14.90;99.90;;;;;;2505440;23;20019;-74
2022/05/07 04:38:18;;;;;;;11.70;10.50;;;14.90;99.10;;;;;;2494804;23;20022;-74
2022/05/07 04:39:20;;;;;;;13.88;11.05;;;14.90;98.70;;;;;;2495007;23;20007;-75
2022/05/07 04:40:34;;;;;;;17.60;12.80;;;15.00;97.90;;;;;;2482825;23;20012;-75
2022/05/07 04:41:34;;;;;;;15.95;11.65;;;15.10;97.30;;;;;;2483434;23;20019;-75
2022/05/07 04:42:36;;;;;;;12.25;9.68;;;15.20;96.50;;;;;;2495290;23;20137;-75
2022/05/07 04:43:39;;;;;;;9.40;8.07;;;15.30;96.00;;;;;;2495025;23;20011;-74
2022/05/07 04:44:42;;;;;;;9.73;7.90;;;15.40;95.40;;;;;;2494949;23;20100;-74
2022/05/07 04:45:50;;;;;;;8.48;7.45;;;15.40;94.70;;;;;;2495298;23;20612;-75
2022/05/07 04:46:52;;;;;;;10.25;7.85;;;15.60;94.10;;;;;;2495848;23;20015;-77
2022/05/07 04:47:54;;;;;;;8.48;7.45;;;15.60;93.60;;;;;;2496119;23;20035;-75
2022/05/07 04:49:08;;;;;;;8.20;7.25;;;15.80;93.30;;;;;;2496496;23;20048;-77
2022/05/07 04:50:09;;;;;;;10.10;6.80;;;15.90;92.70;;;;;;2496726;23;20027;-76
2022/05/07 04:51:17;;;;;;;10.07;7.32;;;15.90;92.20;;;;;;2495660;23;20574;-74
2022/05/07 04:52:30;;;;;;;8.07;7.28;;;15.90;92.00;;;;;;2495927;23;20022;-77
2022/05/07 04:53:32;;;;;;;9.32;7.30;;;16.00;91.40;;;;;;2495077;23;20003;-77
2022/05/07 04:54:39;;;;;;;7.95;7.15;;;16.00;91.00;;;;;;2494929;23;20004;-78
2022/05/07 04:55:41;;;;;;;7.90;7.07;;;16.20;90.60;;;;;;2495459;23;20015;-78
2022/05/07 04:56:43;;;;;;;7.57;6.78;;;16.30;90.10;;;;;;2494149;23;20010;-77
2022/05/07 04:57:43;;;;;;;9.77;7.00;;;16.30;89.40;;;;;;2493386;23;20059;-77
2022/05/07 04:58:44;;;;;;;9.90;6.95;;;16.40;88.60;;;;;;2494331;23;20011;-77
2022/05/07 04:59:46;;;;;;;7.20;6.50;;;16.50;87.60;;;;;;2494205;23;20010;-76
2022/05/07 05:00:52;;;;;;;8.23;6.88;;;16.60;87.20;;;;;;2482918;23;20112;-76
2022/05/07 05:01:56;;;;;;;7.60;6.20;;;16.60;85.80;;;;;;2483448;23;20007;-77
2022/05/07 05:02:58;;;;;;;9.85;8.10;;;16.80;84.70;;;;;;2495006;23;20118;-77
2022/05/07 05:04:00;;;;;;;9.73;8.65;;;16.80;83.50;;;;;;2495009;23;20007;-76
2022/05/07 05:05:04;;;;;;;9.55;8.55;;;16.90;83.10;;;;;;2494908;23;20011;-77
2022/05/07 05:06:05;;;;;;;9.18;8.00;;;17.10;82.30;;;;;;2494956;23;20099;-76
2022/05/07 05:07:23;;;;;;;23.40;19.30;;;17.20;81.10;;;;;;2482517;23;20828;-76
2022/05/07 05:08:24;;;;;;;17.20;14.20;;;17.40;78.90;;;;;;2483366;23;20008;-77
2022/05/07 05:09:26;;;;;;;12.45;10.25;;;17.50;77.80;;;;;;2483152;23;20007;-76
2022/05/07 05:10:39;;;;;;;9.75;8.45;;;17.60;76.80;;;;;;2485318;23;20091;-77
2022/05/07 05:11:40;;;;;;;9.77;7.75;;;17.60;76.50;;;;;;2483390;23;20120;-80
2022/05/07 05:12:45;;;;;;;10.35;7.50;;;17.70;74.80;;;;;;2485065;23;20039;-79
2022/05/07 05:13:45;;;;;;;9.68;7.22;;;17.80;73.70;;;;;;2484297;23;20453;-77
2022/05/07 05:15:01;;;;;;;7.82;7.05;;;17.90;73.50;;;;;;2495994;23;20015;-75
2022/05/07 05:16:16;;;;;;;9.30;8.27;;;17.90;73.00;;;;;;2497049;23;20524;-76
2022/05/07 05:17:20;;;;;;;10.65;8.50;;;17.90;72.30;;;;;;2494510;23;20019;-78
2022/05/07 05:18:24;;;;;;;8.40;7.40;;;18.00;72.10;;;;;;2495795;23;20014;-80
2022/05/07 05:19:25;;;;;;;8.80;7.60;;;18.00;71.90;;;;;;2495868;23;20008;-78
2022/05/07 05:20:26;;;;;;;9.32;7.45;;;18.00;71.20;;;;;;2495905;23;20014;-78
2022/05/07 05:21:33;;;;;;;12.52;9.27;;;18.00;70.90;;;;;;2496306;23;20046;-78
2022/05/07 05:22:49;;;;;;;9.80;8.00;;;18.00;71.00;;;;;;2496074;23;20007;-77
2022/05/07 05:23:53;;;;;;;9.55;7.25;;;18.00;70.80;;;;;;2496665;23;20425;-78
2022/05/07 05:24:55;;;;;;;10.85;7.90;;;18.10;70.80;;;;;;2483732;23;20095;-78
2022/05/07 05:25:56;;;;;;;8.93;7.90;;;18.10;70.30;;;;;;2484832;23;20035;-78